createdAt,value
2023-04-06T00:01:19.961Z,11.57
2023-04-06T00:06:26.423Z,11.54
2023-04-06T00:11:31.319Z,11.59
2023-04-06T00:16:36.466Z,11.65
2023-04-06T00:21:42.306Z,11.68
2023-04-06T00:26:47.464Z,11.69
2023-04-06T00:31:52.182Z,11.69
2023-04-06T00:36:58.956Z,11.81
2023-04-06T00:42:12.343Z,11.90
2023-04-06T00:47:16.902Z,12.05
2023-04-06T00:52:22.233Z,12.20
2023-04-06T00:57:27.837Z,12.34
2023-04-06T01:02:34.399Z,12.46
2023-04-06T01:07:40.436Z,12.56
2023-04-06T01:12:52.908Z,12.79
2023-04-06T01:18:19.497Z,13.07
2023-04-06T01:23:34.995Z,13.32
2023-04-06T01:28:41.798Z,13.61
2023-04-06T01:34:01.542Z,13.88
2023-04-06T01:39:07.401Z,14.21
2023-04-06T01:44:16.654Z,14.27
2023-04-06T01:49:24.241Z,14.24
2023-04-06T01:54:33.171Z,14.42
2023-04-06T01:59:49.444Z,14.55
2023-04-06T02:05:18.016Z,14.79
2023-04-06T02:10:24.413Z,14.92
2023-04-06T02:15:30.631Z,15.02
2023-04-06T02:20:38.329Z,15.26
2023-04-06T02:25:44.027Z,15.36
2023-04-06T02:30:49.301Z,15.48
2023-04-06T02:35:55.839Z,15.46
2023-04-06T02:41:01.813Z,15.58
2023-04-06T02:46:09.757Z,15.59
2023-04-06T02:51:17.385Z,15.68
2023-04-06T02:56:28.914Z,15.81
2023-04-06T03:01:34.665Z,15.87
2023-04-06T03:06:42.773Z,15.98
2023-04-06T03:12:00.759Z,16.12
2023-04-06T03:17:08.409Z,16.30
2023-04-06T03:22:15.060Z,16.52
2023-04-06T03:27:21.538Z,16.59
2023-04-06T03:32:31.468Z,16.76
2023-04-06T03:37:38.033Z,16.83
2023-04-06T03:42:44.838Z,17.10
2023-04-06T03:47:53.219Z,17.34
2023-04-06T03:52:58.803Z,17.58
2023-04-06T03:58:06.033Z,17.52
2023-04-06T04:03:11.665Z,17.67
2023-04-06T04:08:17.109Z,17.74
2023-04-06T04:13:22.871Z,17.72
2023-04-06T04:18:30.101Z,17.79
2023-04-06T04:23:37.320Z,17.77
2023-04-06T04:28:42.939Z,18.01
2023-04-06T04:33:48.528Z,17.93
2023-04-06T04:39:03.419Z,17.72
2023-04-06T04:44:14.748Z,17.57
2023-04-06T04:49:20.547Z,17.33
2023-04-06T04:54:27.876Z,17.14
2023-04-06T04:59:35.297Z,16.97
2023-04-06T05:04:49.865Z,16.99
2023-04-06T05:09:59.650Z,17.19
2023-04-06T05:15:09.312Z,17.43
2023-04-06T05:20:16.042Z,17.84
2023-04-06T05:25:26.963Z,18.08
2023-04-06T05:30:37.930Z,18.25
2023-04-06T05:35:43.847Z,18.61
2023-04-06T05:40:51.547Z,18.80
2023-04-06T05:46:02.587Z,18.60
2023-04-06T05:51:10.894Z,18.25
2023-04-06T05:56:26.098Z,18.23
2023-04-06T06:01:31.737Z,18.33
2023-04-06T06:06:37.929Z,18.06
2023-04-06T06:11:53.373Z,17.91
2023-04-06T06:17:02.958Z,18.24
2023-04-06T06:22:08.576Z,18.51
2023-04-06T06:27:18.568Z,18.53
2023-04-06T06:32:25.125Z,18.58
2023-04-06T06:37:32.420Z,18.37
2023-04-06T06:42:40.081Z,18.03
2023-04-06T06:48:02.481Z,17.78
2023-04-06T06:53:08.235Z,17.63
2023-04-06T06:58:13.514Z,17.42
2023-04-06T07:03:18.951Z,17.30
2023-04-06T07:08:25.197Z,17.17
2023-04-06T07:13:30.128Z,17.18
2023-04-06T07:18:40.636Z,17.11
2023-04-06T07:23:47.087Z,17.11
2023-04-06T07:28:52.312Z,17.13
2023-04-06T07:33:58.547Z,17.15
2023-04-06T07:39:03.660Z,17.16
2023-04-06T07:44:09.730Z,17.29
2023-04-06T07:49:15.760Z,17.37
2023-04-06T07:54:21.987Z,17.36
2023-04-06T07:59:27.046Z,17.33
2023-04-06T08:04:33.086Z,17.13
2023-04-06T08:09:37.878Z,17.34
2023-04-06T08:14:42.614Z,17.56
2023-04-06T08:19:47.792Z,17.60
2023-04-06T08:24:53.304Z,17.54
2023-04-06T08:29:58.200Z,17.70
2023-04-06T08:35:03.021Z,17.83
2023-04-06T08:40:08.628Z,17.87
2023-04-06T08:45:14.070Z,18.02
2023-04-06T08:50:20.422Z,18.19
2023-04-06T08:55:25.829Z,18.66
2023-04-06T09:00:32.027Z,18.80
2023-04-06T09:05:37.893Z,18.60
2023-04-06T09:10:44.571Z,18.46
2023-04-06T09:15:49.175Z,18.28
2023-04-06T09:21:03.470Z,18.08
2023-04-06T09:26:15.990Z,17.79
2023-04-06T09:31:25.803Z,17.61
2023-04-06T09:36:40.642Z,17.39
2023-04-06T09:41:51.410Z,17.12
2023-04-06T09:47:00.959Z,16.98
2023-04-06T09:52:09.476Z,16.79
2023-04-06T09:57:27.015Z,16.50
2023-04-06T10:02:37.047Z,16.30
2023-04-06T10:07:57.198Z,16.00
2023-04-06T10:13:04.717Z,15.88
2023-04-06T10:18:09.975Z,15.77
2023-04-06T10:23:18.207Z,15.60
2023-04-06T10:28:23.077Z,15.35
2023-04-06T10:33:28.632Z,15.07
2023-04-06T10:38:42.084Z,14.90
2023-04-06T10:43:59.534Z,14.80
2023-04-06T10:49:15.712Z,14.63
2023-04-06T10:54:21.458Z,14.53
2023-04-06T10:59:27.670Z,14.35
2023-04-06T11:04:33.292Z,14.22
2023-04-06T11:09:38.854Z,14.03
2023-04-06T11:14:43.979Z,14.05
2023-04-06T11:19:48.263Z,13.85
2023-04-06T11:24:53.476Z,13.90
2023-04-06T11:29:58.131Z,13.76
2023-04-06T11:35:02.962Z,13.75
2023-04-06T11:40:11.772Z,13.69
2023-04-06T11:45:18.794Z,13.58
2023-04-06T11:50:23.554Z,13.50
2023-04-06T11:55:29.576Z,13.36
2023-04-06T12:00:36.942Z,13.27
2023-04-06T12:05:42.588Z,13.26
2023-04-06T12:10:47.262Z,13.12
2023-04-06T12:15:53.631Z,13.00
2023-04-06T12:20:58.437Z,12.95
2023-04-06T12:26:05.508Z,12.79
2023-04-06T12:31:18.662Z,12.79
2023-04-06T12:36:24.920Z,12.71
2023-04-06T12:41:31.941Z,12.67
2023-04-06T12:46:40.351Z,12.60
2023-04-06T12:51:48.610Z,12.55
2023-04-06T12:56:54.962Z,12.43
2023-04-06T13:02:01.113Z,12.36
2023-04-06T13:07:06.115Z,12.28
2023-04-06T13:12:13.792Z,12.30
2023-04-06T13:17:19.167Z,12.23
2023-04-06T13:22:24.043Z,12.25
2023-04-06T13:27:29.668Z,12.06
2023-04-06T13:32:36.768Z,11.95
2023-04-06T13:37:43.200Z,11.84
2023-04-06T13:42:48.575Z,11.68
2023-04-06T13:47:54.392Z,11.77
2023-04-06T13:53:00.306Z,11.67
2023-04-06T13:58:05.272Z,11.55
2023-04-06T14:03:10.421Z,11.54
2023-04-06T14:08:16.793Z,11.50
2023-04-06T14:13:23.470Z,11.42
2023-04-06T14:18:31.395Z,11.32
2023-04-06T14:23:36.410Z,11.23
2023-04-06T14:28:41.668Z,11.08
2023-04-06T14:33:48.117Z,11.03
2023-04-06T14:38:54.376Z,10.87
2023-04-06T14:43:59.467Z,10.86
2023-04-06T14:49:04.419Z,10.83
2023-04-06T14:54:12.476Z,10.75
2023-04-06T14:59:19.406Z,10.72
2023-04-06T15:04:24.401Z,10.61
2023-04-06T15:09:29.465Z,10.56
2023-04-06T15:14:34.931Z,10.56
2023-04-06T15:19:40.872Z,10.51
2023-04-06T15:24:47.439Z,10.47
2023-04-06T15:29:52.735Z,10.41
2023-04-06T15:35:00.517Z,10.37
2023-04-06T15:40:10.426Z,10.33
2023-04-06T15:45:15.462Z,10.28
2023-04-06T15:50:21.610Z,10.23
2023-04-06T15:55:26.786Z,10.18
2023-04-06T16:00:32.730Z,10.13
2023-04-06T16:05:48.312Z,10.08
2023-04-06T16:11:02.365Z,10.01
2023-04-06T16:16:08.113Z,9.92
2023-04-06T16:21:20.704Z,9.83
2023-04-06T16:26:25.604Z,9.77
2023-04-06T16:31:30.348Z,9.68
2023-04-06T16:36:35.876Z,9.58
2023-04-06T16:41:41.193Z,9.46
2023-04-06T16:46:46.441Z,9.34
2023-04-06T16:51:51.506Z,9.22
2023-04-06T16:56:56.380Z,9.10
2023-04-06T17:02:01.289Z,9.01
2023-04-06T17:07:06.324Z,8.91
2023-04-06T17:12:11.496Z,8.86
2023-04-06T17:17:16.344Z,8.83
2023-04-06T17:22:22.951Z,8.83
2023-04-06T17:27:29.267Z,8.80
2023-04-06T17:32:35.302Z,8.75
2023-04-06T17:37:40.398Z,8.75
2023-04-06T17:42:45.233Z,8.69
2023-04-06T17:47:49.992Z,8.66
2023-04-06T17:52:54.745Z,8.57
2023-04-06T17:57:59.647Z,8.50
2023-04-06T18:03:04.475Z,8.39
2023-04-06T18:08:09.212Z,8.26
2023-04-06T18:13:13.363Z,8.14
2023-04-06T18:18:19.771Z,8.11
2023-04-06T18:23:24.707Z,8.00
2023-04-06T18:28:29.751Z,7.91
2023-04-06T18:33:35.054Z,7.89
2023-04-06T18:38:44.398Z,7.77
2023-04-06T18:43:49.372Z,7.65
2023-04-06T18:48:54.391Z,7.59
2023-04-06T18:54:00.561Z,7.49
2023-04-06T18:59:05.535Z,7.37
2023-04-06T19:04:10.582Z,7.23
2023-04-06T19:09:15.610Z,7.12
2023-04-06T19:14:20.083Z,7.04
2023-04-06T19:19:24.981Z,7.03
2023-04-06T19:24:31.036Z,6.94
2023-04-06T19:29:39.945Z,6.82
2023-04-06T19:34:46.616Z,6.69
2023-04-06T19:39:51.344Z,6.62
2023-04-06T19:44:57.453Z,6.53
2023-04-06T19:50:04.290Z,6.49
2023-04-06T19:55:10.446Z,6.43
2023-04-06T20:00:15.573Z,6.34
2023-04-06T20:05:20.229Z,6.22
2023-04-06T20:10:25.111Z,6.18
2023-04-06T20:15:30.866Z,6.13
2023-04-06T20:20:35.602Z,6.08
2023-04-06T20:25:41.702Z,6.03
2023-04-06T20:30:46.665Z,5.92
2023-04-06T20:36:02.453Z,5.85
2023-04-06T20:41:09.634Z,5.75
2023-04-06T20:46:20.915Z,5.73
2023-04-06T20:51:26.900Z,5.68
2023-04-06T20:56:33.283Z,5.69
2023-04-06T21:01:38.684Z,5.65
2023-04-06T21:06:45.174Z,5.61
2023-04-06T21:11:50.211Z,5.57
2023-04-06T21:16:57.068Z,5.54
2023-04-06T21:22:02.421Z,5.50
2023-04-06T21:27:07.713Z,5.47
2023-04-06T21:32:12.930Z,5.45
2023-04-06T21:37:19.267Z,5.42
2023-04-06T21:42:25.748Z,5.40
2023-04-06T21:47:31.120Z,5.34
2023-04-06T21:52:36.414Z,5.29
2023-04-06T21:57:41.612Z,5.27
2023-04-06T22:02:48.405Z,5.35
2023-04-06T22:07:54.603Z,5.43
2023-04-06T22:12:59.975Z,5.56
2023-04-06T22:18:05.234Z,5.74
2023-04-06T22:23:12.560Z,5.84
2023-04-06T22:28:17.997Z,5.97
2023-04-06T22:33:23.333Z,6.13
2023-04-06T22:38:28.463Z,6.23
2023-04-06T22:43:33.626Z,6.35
2023-04-06T22:48:38.781Z,6.49
2023-04-06T22:53:44.214Z,6.65
2023-04-06T22:58:49.466Z,6.78
2023-04-06T23:03:54.674Z,6.83
2023-04-06T23:09:00.053Z,7.01
2023-04-06T23:14:05.224Z,7.19
2023-04-06T23:19:11.291Z,7.37
2023-04-06T23:24:17.032Z,7.53
2023-04-06T23:29:22.440Z,7.69
2023-04-06T23:34:28.567Z,7.86
2023-04-06T23:39:33.907Z,8.00
2023-04-06T23:44:39.203Z,8.16
2023-04-06T23:49:44.650Z,8.31
2023-04-06T23:54:49.777Z,8.47
2023-04-06T23:59:54.962Z,8.66
